Mariner A — 9HVA7 — position and weather

sailwx.info

Track history (hours):
 
Tides and Currents Weather Stations Pressure Air Temp Water Temp Dewpoint Dewpoint Depression Visibility Wind Speed Wind Dir Waves Ship Positions

Mariner A

Last reported at 2017-Jul-28 03:04 UTC. Time now 2017-Jul-28 10:50 UTC.
Position N 31°59' E 034°12'.

Length 176 m; draft 7.8 m.

Type: Tanker. MMSI: 215817000.

Date/timePositionNaut miles runAvg speedWind from/ knotsBaromVisibWave heightAir tempDewpointWater temp
2017-Jul-28 03:04N 31°59' E 034°12'312.4
2017-Jul-28 02:49N 31°60' E 034°09'3812.3
2017-Jul-27 23:45N 32°38' E 034°12'412.2
2017-Jul-27 23:24N 32°42' E 034°13'812.3
2017-Jul-27 22:44N 32°50' E 034°14'312.4
2017-Jul-27 22:28N 32°53' E 034°15'612.5
2017-Jul-27 22:00N 32°59' E 034°16'612.5
2017-Jul-27 21:30N 33°05' E 034°16'612.6
2017-Jul-27 21:00N 33°11' E 034°16'611.5
2017-Jul-27 20:30N 33°17' E 034°17'713.0
2017-Jul-27 20:00N 33°24' E 034°18'713.2
2017-Jul-27 19:30N 33°30' E 034°19'713.1
2017-Jul-27 19:00N 33°37' E 034°20'812.9
2017-Jul-27 18:25N 33°44' E 034°21'612.4
2017-Jul-27 17:57N 33°50' E 034°22'612.3
2017-Jul-27 17:30N 33°55' E 034°23'612.1
2017-Jul-27 17:00N 34°01' E 034°23'612.0
2017-Jul-27 16:30N 34°07' E 034°24'611.9
2017-Jul-27 16:00N 34°13' E 034°25'611.8
2017-Jul-27 15:30N 34°19' E 034°26'611.8
2017-Jul-27 15:00N 34°25' E 034°27'1212.0
2017-Jul-27 13:58N 34°37' E 034°29'612.1
2017-Jul-27 13:30N 34°43' E 034°30'612.2
2017-Jul-27 13:00N 34°49' E 034°32'612.2
2017-Jul-27 12:29N 34°55' E 034°33'612.4
2017-Jul-27 12:00N 35°01' E 034°35'105 2.3
2017-Jul-25 14:49N 36°46' E 034°43'2610.0
2017-Jul-25 12:13N 36°20' E 034°42'612.4
2017-Jul-25 11:42N 36°13' E 034°44'212.2
2017-Jul-25 11:30N 36°11' E 034°44'8612.3
2017-Jul-25 04:30N 34°45' E 034°30'3314.0
2017-Jul-25 02:10N 34°13' E 034°25'414.3
2017-Jul-25 01:55N 34°09' E 034°24'614.4
2017-Jul-25 01:30N 34°04' E 034°23'814.3
2017-Jul-25 00:56N 33°56' E 034°22'613.9
2017-Jul-25 00:30N 33°50' E 034°21'713.9
2017-Jul-25 00:00N 33°43' E 034°20'713.7
2017-Jul-24 23:30N 33°36' E 034°19'713.5
2017-Jul-24 23:00N 33°29' E 034°18'713.4
2017-Jul-24 22:30N 33°22' E 034°17'713.3
2017-Jul-24 22:00N 33°16' E 034°16'4013.3
2017-Jul-24 19:00N 32°36' E 034°18'3013.4
2017-Jul-24 16:44N 32°06' E 034°24'313.6
2017-Jul-24 16:30N 32°03' E 034°25'913.4
2017-Jul-24 15:49N 31°54' E 034°27'48 1.3
2017-Jul-23 02:02N 32°41' E 034°18'212.6
2017-Jul-23 01:52N 32°44' E 034°18'612.6
2017-Jul-23 01:21N 32°50' E 034°16'412.6
2017-Jul-23 01:00N 32°54' E 034°15'712.6
2017-Jul-23 00:28N 33°01' E 034°14'612.7
2017-Jul-23 00:00N 33°07' E 034°15'712.7
2017-Jul-22 23:29N 33°13' E 034°16'612.7
2017-Jul-22 23:00N 33°19' E 034°17'612.8
2017-Jul-22 22:30N 33°26' E 034°18'712.8
2017-Jul-22 22:00N 33°32' E 034°19'712.7
2017-Jul-22 21:26N 33°39' E 034°20'512.7
2017-Jul-22 21:00N 33°45' E 034°21'612.6
2017-Jul-22 20:30N 33°51' E 034°22'612.6
2017-Jul-22 20:00N 33°57' E 034°23'712.3
2017-Jul-22 19:27N 34°04' E 034°23'812.1
2017-Jul-22 18:46N 34°12' E 034°25'312.3
2017-Jul-22 18:30N 34°15' E 034°26'812.4
2017-Jul-22 17:54N 34°23' E 034°27'612.6
2017-Jul-22 17:26N 34°28' E 034°28'2512.7
2017-Jul-22 15:26N 34°54' E 034°33'612.6
2017-Jul-22 14:59N 34°59' E 034°34'  
2017-Jul-20 04:09N 34°10' E 034°20'514.4
2017-Jul-20 03:49N 34°05' E 034°19'714.2
2017-Jul-20 03:20N 33°58' E 034°18'514.2
2017-Jul-20 02:58N 33°53' E 034°17'6613.7
2017-Jul-19 22:10N 32°47' E 034°08'513.9
2017-Jul-19 21:48N 32°42' E 034°08'16 9.5
2017-Jul-19 20:10N 32°27' E 034°07'7 9.1
2017-Jul-19 19:24N 32°20' E 034°09'513.6
2017-Jul-19 19:00N 32°15' E 034°11'3910.1
2017-Jul-19 15:10N 31°40' E 034°31'0 0.7
2017-Jul-19 15:00N 31°40' E 034°31'0 0.0
2017-Jul-18 13:19N 31°40' E 034°31'2 6.7
2017-Jul-18 13:00N 31°42' E 034°30'814.1
2017-Jul-18 12:27N 31°50' E 034°27'714.2
2017-Jul-18 11:58N 31°56' E 034°24'714.4
2017-Jul-18 11:29N 32°02' E 034°19'814.5
2017-Jul-18 10:57N 32°08' E 034°13'714.8
2017-Jul-18 10:29N 32°13' E 034°08'714.9
2017-Jul-18 10:00N 32°19' E 034°03'714.8
2017-Jul-18 09:30N 32°24' E 033°57'814.9
2017-Jul-18 09:00N 32°30' E 033°52'815.0
2017-Jul-18 08:26N 32°37' E 033°46'717.0
2017-Jul-18 08:01N 32°42' E 033°40'813.1
2017-Jul-18 07:22N 32°49' E 033°34'514.7
2017-Jul-18 07:00N 32°54' E 033°31'714.7
2017-Jul-18 06:30N 32°60' E 033°26'714.6
2017-Jul-18 06:00N 33°06' E 033°22'814.4
2017-Jul-18 05:29N 33°12' E 033°17'814.1
2017-Jul-18 04:57N 33°19' E 033°12'1214.1
2017-Jul-18 04:05N 33°29' E 033°04'114.0
2017-Jul-18 04:00N 33°30' E 033°03'  
Track history (hours):
 
Tides and Currents Weather Stations Pressure Air Temp Water Temp Dewpoint Dewpoint Depression Visibility Wind Speed Wind Dir Waves Ship Positions

Mariner A

Last reported at 2017-Jul-28 03:04 UTC. Time now 2017-Jul-28 10:50 UTC.
Position N 31°59' E 034°12'.

Length 176 m; draft 7.8 m.

Type: Tanker. MMSI: 215817000.

Date/timePositionNaut miles runAvg speedWind from/ knotsBaromVisibWave heightAir tempDewpointWater temp
2017-Jul-28 03:04N 31°59' E 034°12'312.4
2017-Jul-28 02:49N 31°60' E 034°09'3812.3
2017-Jul-27 23:45N 32°38' E 034°12'412.2
2017-Jul-27 23:24N 32°42' E 034°13'812.3
2017-Jul-27 22:44N 32°50' E 034°14'312.4
2017-Jul-27 22:28N 32°53' E 034°15'612.5
2017-Jul-27 22:00N 32°59' E 034°16'612.5
2017-Jul-27 21:30N 33°05' E 034°16'612.6
2017-Jul-27 21:00N 33°11' E 034°16'611.5
2017-Jul-27 20:30N 33°17' E 034°17'713.0
2017-Jul-27 20:00N 33°24' E 034°18'713.2
2017-Jul-27 19:30N 33°30' E 034°19'713.1
2017-Jul-27 19:00N 33°37' E 034°20'812.9
2017-Jul-27 18:25N 33°44' E 034°21'612.4
2017-Jul-27 17:57N 33°50' E 034°22'612.3
2017-Jul-27 17:30N 33°55' E 034°23'612.1
2017-Jul-27 17:00N 34°01' E 034°23'612.0
2017-Jul-27 16:30N 34°07' E 034°24'611.9
2017-Jul-27 16:00N 34°13' E 034°25'611.8
2017-Jul-27 15:30N 34°19' E 034°26'611.8
2017-Jul-27 15:00N 34°25' E 034°27'1212.0
2017-Jul-27 13:58N 34°37' E 034°29'612.1
2017-Jul-27 13:30N 34°43' E 034°30'612.2
2017-Jul-27 13:00N 34°49' E 034°32'612.2
2017-Jul-27 12:29N 34°55' E 034°33'612.4
2017-Jul-27 12:00N 35°01' E 034°35'105 2.3
2017-Jul-25 14:49N 36°46' E 034°43'2610.0
2017-Jul-25 12:13N 36°20' E 034°42'612.4
2017-Jul-25 11:42N 36°13' E 034°44'212.2
2017-Jul-25 11:30N 36°11' E 034°44'8612.3
2017-Jul-25 04:30N 34°45' E 034°30'3314.0
2017-Jul-25 02:10N 34°13' E 034°25'414.3
2017-Jul-25 01:55N 34°09' E 034°24'614.4
2017-Jul-25 01:30N 34°04' E 034°23'814.3
2017-Jul-25 00:56N 33°56' E 034°22'613.9
2017-Jul-25 00:30N 33°50' E 034°21'713.9
2017-Jul-25 00:00N 33°43' E 034°20'713.7
2017-Jul-24 23:30N 33°36' E 034°19'713.5
2017-Jul-24 23:00N 33°29' E 034°18'713.4
2017-Jul-24 22:30N 33°22' E 034°17'713.3
2017-Jul-24 22:00N 33°16' E 034°16'4013.3
2017-Jul-24 19:00N 32°36' E 034°18'3013.4
2017-Jul-24 16:44N 32°06' E 034°24'313.6
2017-Jul-24 16:30N 32°03' E 034°25'913.4
2017-Jul-24 15:49N 31°54' E 034°27'48 1.3
2017-Jul-23 02:02N 32°41' E 034°18'212.6
2017-Jul-23 01:52N 32°44' E 034°18'612.6
2017-Jul-23 01:21N 32°50' E 034°16'412.6
2017-Jul-23 01:00N 32°54' E 034°15'712.6
2017-Jul-23 00:28N 33°01' E 034°14'612.7
2017-Jul-23 00:00N 33°07' E 034°15'712.7
2017-Jul-22 23:29N 33°13' E 034°16'612.7
2017-Jul-22 23:00N 33°19' E 034°17'612.8
2017-Jul-22 22:30N 33°26' E 034°18'712.8
2017-Jul-22 22:00N 33°32' E 034°19'712.7
2017-Jul-22 21:26N 33°39' E 034°20'512.7
2017-Jul-22 21:00N 33°45' E 034°21'612.6
2017-Jul-22 20:30N 33°51' E 034°22'612.6
2017-Jul-22 20:00N 33°57' E 034°23'712.3
2017-Jul-22 19:27N 34°04' E 034°23'812.1
2017-Jul-22 18:46N 34°12' E 034°25'312.3
2017-Jul-22 18:30N 34°15' E 034°26'812.4
2017-Jul-22 17:54N 34°23' E 034°27'612.6
2017-Jul-22 17:26N 34°28' E 034°28'2512.7
2017-Jul-22 15:26N 34°54' E 034°33'612.6
2017-Jul-22 14:59N 34°59' E 034°34'  
2017-Jul-20 04:09N 34°10' E 034°20'514.4
2017-Jul-20 03:49N 34°05' E 034°19'714.2
2017-Jul-20 03:20N 33°58' E 034°18'514.2
2017-Jul-20 02:58N 33°53' E 034°17'6613.7
2017-Jul-19 22:10N 32°47' E 034°08'513.9
2017-Jul-19 21:48N 32°42' E 034°08'16 9.5
2017-Jul-19 20:10N 32°27' E 034°07'7 9.1
2017-Jul-19 19:24N 32°20' E 034°09'513.6
2017-Jul-19 19:00N 32°15' E 034°11'3910.1
2017-Jul-19 15:10N 31°40' E 034°31'0 0.7
2017-Jul-19 15:00N 31°40' E 034°31'0 0.0
2017-Jul-18 13:19N 31°40' E 034°31'2 6.7
2017-Jul-18 13:00N 31°42' E 034°30'814.1
2017-Jul-18 12:27N 31°50' E 034°27'714.2
2017-Jul-18 11:58N 31°56' E 034°24'714.4
2017-Jul-18 11:29N 32°02' E 034°19'814.5
2017-Jul-18 10:57N 32°08' E 034°13'714.8
2017-Jul-18 10:29N 32°13' E 034°08'714.9
2017-Jul-18 10:00N 32°19' E 034°03'714.8
2017-Jul-18 09:30N 32°24' E 033°57'814.9
2017-Jul-18 09:00N 32°30' E 033°52'815.0
2017-Jul-18 08:26N 32°37' E 033°46'717.0
2017-Jul-18 08:01N 32°42' E 033°40'813.1
2017-Jul-18 07:22N 32°49' E 033°34'514.7
2017-Jul-18 07:00N 32°54' E 033°31'714.7
2017-Jul-18 06:30N 32°60' E 033°26'714.6
2017-Jul-18 06:00N 33°06' E 033°22'814.4
2017-Jul-18 05:29N 33°12' E 033°17'814.1
2017-Jul-18 04:57N 33°19' E 033°12'1214.1
2017-Jul-18 04:05N 33°29' E 033°04'114.0
2017-Jul-18 04:00N 33°30' E 033°03'  

Dump ship's entire track history